Time;durP1;ratioP1;P1;durP2;ratioP2;P2;SDS_P1;SDS_P2;PMS_P1;PMS_P2;Temp;Humidity;BMP_temperature;BMP_pressure;BME280_temperature;BME280_humidity;BME280_pressure;Samples;Min_cycle;Max_cycle;Signal;HPM_P1;HPM_P2
2022/01/21 00:00:32;;;;;;;;;;;;;;;3.84;59.39;100004.53;4438792;32;20004;-87
2022/01/21 00:02:57;;;;;;;;;;;;;;;3.88;59.39;100001.09;4438694;32;22678;-87
2022/01/21 00:05:23;;;;;;;;;;;;;;;3.95;59.39;100000.22;4438680;32;19989;-86
2022/01/21 00:07:48;;;;;;;;;;;;;;;3.98;59.41;99995.06;4426442;32;19985;-87
2022/01/21 00:10:13;;;;;;;;;;;;;;;3.96;59.40;99995.94;4426298;32;19977;-87
2022/01/21 00:12:39;;;;;;;;;;;;;;;4.06;59.41;99996.78;4438837;32;19995;-87
2022/01/21 00:15:05;;;;;;;;;;;;;;;3.93;59.39;99998.50;4438872;32;20007;-86
2022/01/21 00:17:30;;;;;;;;;;;;;;;3.69;59.39;100012.25;4438772;32;20517;-87
2022/01/21 00:30:08;;;;;;;;;;;;;;;3.66;59.38;100018.28;4438934;32;19981;-87
2022/01/21 00:30:53;;;;;;;;;;;;;;;3.24;59.35;100020.78;4441058;32;19992;-86
2022/01/21 00:33:18;;;;;;;;;;;;;;;3.41;59.37;100013.97;4425598;32;20017;-87
2022/01/21 00:35:43;;;;;;;;;;;;;;;3.37;59.36;100004.53;4425537;32;19989;-89
2022/01/21 00:38:08;;;;;;;;;;;;;;;3.36;59.36;99995.09;4425661;32;20137;-88
2022/01/21 00:40:34;;;;;;;;;;;;;;;3.31;59.36;99992.53;4425567;32;20346;-88
2022/01/21 00:43:21;;;;;;;;;;;;;;;3.42;59.36;99992.53;4452496;32;19977;-89
2022/01/21 00:45:47;;;;;;;;;;;;;;;3.47;59.38;99995.09;4452562;32;20650;-89
2022/01/21 00:48:12;;;;;;;;;;;;;;;3.43;59.36;99993.37;4452416;32;20362;-89
2022/01/21 00:50:37;;;;;;;;;;;;;;;3.32;59.37;99993.37;4437876;32;19973;-90
2022/01/21 00:53:03;;;;;;;;;;;;;;;3.38;59.36;99988.22;4425053;32;20573;-89
2022/01/21 00:55:28;;;;;;;;;;;;;;;3.24;59.36;99990.78;4425412;32;20293;-89
2022/01/21 00:57:53;;;;;;;;;;;;;;;3.32;59.37;100008.81;4425144;32;20322;-89
2022/01/21 01:00:18;;;;;;;;;;;;;;;3.19;59.36;100014.78;4438346;32;20251;-89
2022/01/21 01:02:43;;;;;;;;;;;;;;;3.16;59.34;100020.78;4424982;32;20141;-88
2022/01/21 01:05:09;;;;;;;;;;;;;;;3.30;59.36;100020.78;4437819;32;20053;-88
2022/01/21 01:07:34;;;;;;;;;;;;;;;3.17;59.36;100021.66;4426299;32;20005;-88
2022/01/21 01:10:02;;;;;;;;;;;;;;;2.98;59.34;100023.31;4426800;32;19981;-88
2022/01/21 01:20:46;;;;;;;;;;;;;;;2.59;59.32;100031.72;4418045;32;19977;-89
2022/01/21 01:23:26;;;;;;;;;;;;;;;2.43;59.32;100039.34;4439367;32;20016;-88
2022/01/21 01:28:35;;;;;;;;;;;;;;;2.43;59.32;100041.06;4441890;32;19988;-89
2022/01/21 01:31:00;;;;;;;;;;;;;;;2.69;59.33;100039.47;4439636;32;20301;-88
2022/01/21 01:33:34;;;;;;;;;;;;;;;2.62;59.32;100048.03;4439309;32;19992;-88
2022/01/21 01:35:59;;;;;;;;;;;;;;;2.48;59.31;100034.25;4440888;32;20047;-89
2022/01/21 01:41:04;;;;;;;;;;;;;;;2.73;59.33;100046.34;4439577;32;19985;-87
2022/01/21 01:51:23;;;;;;;;;;;;;;;2.48;59.31;100059.94;4441810;32;20040;-88
2022/01/21 01:53:49;;;;;;;;;;;;;;;2.07;59.30;100057.09;4439788;32;19989;-88
2022/01/21 01:56:15;;;;;;;;;;;;;;;2.15;59.30;100068.28;4426704;32;20533;-87
2022/01/21 01:58:41;;;;;;;;;;;;;;;2.07;59.29;100073.34;4426647;32;20024;-88
2022/01/21 02:01:06;;;;;;;;;;;;;;;2.06;59.28;100073.34;4453698;32;19973;-88
2022/01/21 02:03:32;;;;;;;;;;;;;;;2.13;59.29;100070.00;4453821;32;20005;-88
2022/01/21 02:05:57;;;;;;;;;;;;;;;2.25;59.30;100082.06;4453714;32;20080;-88
2022/01/21 02:08:22;;;;;;;;;;;;;;;2.06;59.29;100071.63;4426654;32;20420;-89
2022/01/21 02:10:47;;;;;;;;;;;;;;;2.10;59.29;100070.81;4453897;32;19965;-88
2022/01/21 02:13:26;;;;;;;;;;;;;;;2.07;59.29;100068.22;4439548;32;20346;-87
2022/01/21 02:16:04;;;;;;;;;;;;;;;2.31;59.30;100079.50;4439515;32;20377;-88
2022/01/21 02:23:54;;;;;;;;;;;;;;;2.32;59.31;100064.09;4440733;32;20604;-88
2022/01/21 02:26:19;;;;;;;;;;;;;;;2.41;59.30;100063.31;4453752;32;19977;-89
2022/01/21 02:28:45;;;;;;;;;;;;;;;2.54;59.32;100044.53;4439253;32;19984;-89
2022/01/21 02:31:10;;;;;;;;;;;;;;;2.53;59.32;100045.38;4439392;32;19996;-87
2022/01/21 02:33:35;;;;;;;;;;;;;;;2.72;59.32;100043.78;4453485;32;20015;-87
2022/01/21 02:36:00;;;;;;;;;;;;;;;2.63;59.32;100052.31;4439433;32;20017;-87
2022/01/21 02:38:25;;;;;;;;;;;;;;;2.59;59.32;100047.13;4439174;32;20364;-87
2022/01/21 02:40:51;;;;;;;;;;;;;;;2.59;59.32;100052.25;4439087;32;20381;-86
2022/01/21 02:43:16;;;;;;;;;;;;;;;2.61;59.32;100041.16;4426484;32;20263;-86
2022/01/21 02:45:45;;;;;;;;;;;;;;;2.55;59.32;100032.56;4453521;32;20011;-87
2022/01/21 02:48:11;;;;;;;;;;;;;;;2.40;59.31;100023.94;4453518;32;19973;-87
2022/01/21 02:50:36;;;;;;;;;;;;;;;2.47;59.32;100035.09;4426235;32;20150;-88
2022/01/21 02:53:24;;;;;;;;;;;;;;;2.44;59.32;100053.91;4426434;32;19985;-87
2022/01/21 02:55:49;;;;;;;;;;;;;;;2.45;59.32;100053.06;4428799;32;20016;-87
2022/01/21 02:58:15;;;;;;;;;;;;;;;2.30;59.31;100052.09;4439465;32;19992;-88
2022/01/21 03:00:40;;;;;;;;;;;;;;;2.45;59.32;100045.38;4439118;32;20056;-88
2022/01/21 03:03:05;;;;;;;;;;;;;;;2.38;59.31;100040.19;4439429;32;19996;-87
2022/01/21 03:05:31;;;;;;;;;;;;;;;2.34;59.30;100036.72;4453528;32;20125;-87
2022/01/21 03:07:56;;;;;;;;;;;;;;;2.46;59.31;100056.50;4439364;32;19976;-88
2022/01/21 03:10:21;;;;;;;;;;;;;;;2.37;59.31;100062.44;4426079;32;19989;-87
2022/01/21 03:12:47;;;;;;;;;;;;;;;2.33;59.31;100052.12;4426390;32;19993;-87
2022/01/21 03:15:12;;;;;;;;;;;;;;;2.23;59.30;100060.63;4426344;32;20360;-87
2022/01/21 03:17:37;;;;;;;;;;;;;;;2.18;59.30;100064.88;4426360;32;20000;-88
2022/01/21 03:20:03;;;;;;;;;;;;;;;2.26;59.30;100065.78;4439213;32;20396;-89
2022/01/21 03:22:28;;;;;;;;;;;;;;;2.04;59.28;100057.06;4439289;32;19990;-87
2022/01/21 03:24:53;;;;;;;;;;;;;;;1.83;59.28;100068.88;4438997;32;20025;-88
2022/01/21 03:27:19;;;;;;;;;;;;;;;1.84;59.28;100070.59;4438569;32;23083;-88
2022/01/21 03:29:44;;;;;;;;;;;;;;;1.75;59.27;100079.94;4438013;32;20037;-88
2022/01/21 03:32:09;;;;;;;;;;;;;;;1.74;59.27;100083.38;4426230;32;20050;-87
2022/01/21 03:34:34;;;;;;;;;;;;;;;1.77;59.28;100088.53;4426123;32;20024;-87
2022/01/21 03:37:00;;;;;;;;;;;;;;;1.85;59.28;100081.72;4452889;32;20001;-86
2022/01/21 03:39:25;;;;;;;;;;;;;;;1.80;59.28;100089.41;4438893;32;20311;-87
2022/01/21 03:41:50;;;;;;;;;;;;;;;1.91;59.28;100079.25;4438542;32;21085;-86
2022/01/21 03:44:16;;;;;;;;;;;;;;;1.79;59.28;100094.53;4438881;32;20040;-86
2022/01/21 03:46:41;;;;;;;;;;;;;;;1.85;59.28;100092.00;4438620;32;20302;-87
2022/01/21 03:49:08;;;;;;;;;;;;;;;2.05;59.29;100085.31;4438820;32;20000;-87
2022/01/21 03:51:33;;;;;;;;;;;;;;;2.12;59.29;100081.09;4439013;32;19981;-86
2022/01/21 03:53:58;;;;;;;;;;;;;;;2.03;59.29;100075.91;4439268;32;20033;-87
2022/01/21 03:56:24;;;;;;;;;;;;;;;1.94;59.29;100075.84;4438937;32;20098;-86
2022/01/21 03:58:49;;;;;;;;;;;;;;;1.79;59.28;100087.69;4438614;32;20004;-86
2022/01/21 04:01:14;;;;;;;;;;;;;;;1.83;59.28;100083.44;4438411;32;20441;-87
2022/01/21 04:03:39;;;;;;;;;;;;;;;1.85;59.28;100087.72;4425703;32;20008;-87
2022/01/21 04:06:04;;;;;;;;;;;;;;;1.88;59.28;100086.03;4425642;32;20516;-87
2022/01/21 04:08:30;;;;;;;;;;;;;;;1.74;59.27;100078.22;4438703;32;20019;-86
2022/01/21 04:10:55;;;;;;;;;;;;;;;1.66;59.27;100077.31;4425960;32;20377;-87
2022/01/21 04:13:23;;;;;;;;;;;;;;;1.58;59.26;100084.06;4426266;32;19997;-87
2022/01/21 04:15:49;;;;;;;;;;;;;;;1.47;59.25;100083.97;4439334;32;20040;-87
2022/01/21 04:18:15;;;;;;;;;;;;;;;1.31;59.24;100072.69;4438885;32;19981;-87
2022/01/21 04:20:41;;;;;;;;;;;;;;;1.00;59.23;100080.87;4425921;32;19984;-86
2022/01/21 04:23:06;;;;;;;;;;;;;;;1.07;59.23;100083.53;4438897;32;20138;-88
2022/01/21 04:25:32;;;;;;;;;;;;;;;1.00;59.22;100091.13;4426418;32;20078;-91
2022/01/21 04:27:57;;;;;;;;;;;;;;;1.01;59.23;100092.84;4439360;32;20302;-88
2022/01/21 04:30:22;;;;;;;;;;;;;;;0.91;59.22;100087.59;4439190;32;20291;-91
2022/01/21 04:32:48;;;;;;;;;;;;;;;1.05;59.23;100095.47;4427282;32;20368;-91
2022/01/21 04:35:13;;;;;;;;;;;;;;;0.89;59.23;100111.50;4426499;32;20031;-89
2022/01/21 04:37:44;;;;;;;;;;;;;;;1.05;59.23;100105.72;4438653;32;20397;-88
2022/01/21 04:40:14;;;;;;;;;;;;;;;0.78;59.22;100113.94;4453015;32;19985;-89
2022/01/21 04:48:07;;;;;;;;;;;;;;;0.50;59.20;100116.97;4442707;32;19991;-88
2022/01/21 04:50:40;;;;;;;;;;;;;;;0.52;59.20;100133.22;4440280;32;20042;-88
2022/01/21 04:53:06;;;;;;;;;;;;;;;0.63;59.21;100126.53;4440505;32;20098;-89
2022/01/21 04:55:31;;;;;;;;;;;;;;;0.56;59.20;100137.53;4454644;32;20239;-87
2022/01/21 04:57:56;;;;;;;;;;;;;;;0.55;59.20;100128.97;4427276;32;20028;-86
2022/01/21 05:00:21;;;;;;;;;;;;;;;0.70;59.21;100130.88;4440000;32;20013;-87
2022/01/21 05:02:47;;;;;;;;;;;;;;;0.73;59.21;100135.22;4453935;32;19977;-87
2022/01/21 05:05:12;;;;;;;;;;;;;;;0.58;59.20;100146.09;4439890;32;20025;-88
2022/01/21 05:07:39;;;;;;;;;;;;;;;0.43;59.19;100149.28;4454394;32;19985;-87
2022/01/21 05:10:05;;;;;;;;;;;;;;;0.55;59.20;100146.06;4440512;32;19982;-87
2022/01/21 05:12:30;;;;;;;;;;;;;;;0.40;59.20;100145.81;4454353;32;20019;-88
2022/01/21 05:17:22;;;;;;;;;;;;;;;0.46;59.20;100154.44;4440228;32;20060;-87
2022/01/21 05:19:47;;;;;;;;;;;;;;;0.26;59.19;100150.75;4439942;32;19989;-85
2022/01/21 05:22:12;;;;;;;;;;;;;;;0.43;59.19;100148.41;4426619;32;23009;-86
2022/01/21 05:24:38;;;;;;;;;;;;;;;0.54;59.20;100158.00;4427154;32;19988;-88
2022/01/21 05:27:03;;;;;;;;;;;;;;;0.37;59.19;100164.56;4426669;32;28149;-86
2022/01/21 05:29:29;;;;;;;;;;;;;;;0.24;59.19;100183.13;4439971;32;20003;-86
2022/01/21 05:31:54;;;;;;;;;;;;;;;0.36;59.19;100180.75;4427347;32;20038;-85
2022/01/21 05:34:20;;;;;;;;;;;;;;;0.45;59.20;100187.72;4439954;32;20000;-85
2022/01/21 05:36:45;;;;;;;;;;;;;;;0.45;59.20;100188.56;4439863;32;20485;-85
2022/01/21 05:39:11;;;;;;;;;;;;;;;0.45;59.20;100183.44;4427063;32;20007;-85
2022/01/21 05:41:36;;;;;;;;;;;;;;;0.38;59.20;100193.59;4454019;32;20030;-85
2022/01/21 05:44:06;;;;;;;;;;;;;;;0.27;59.18;100186.59;4440536;32;19969;-89
2022/01/21 05:46:54;;;;;;;;;;;;;;;0.35;59.19;100184.16;4428396;32;19985;-87
2022/01/21 05:49:17;;;;;;;;;;;;;;;0.35;59.19;100189.28;4454725;32;19981;-87
2022/01/21 05:51:42;;;;;;;;;;;;;;;0.44;59.20;100184.28;4430218;32;22607;-87
2022/01/21 05:54:08;;;;;;;;;;;;;;;0.37;59.19;100192.72;4448229;32;19997;-85
2022/01/21 05:56:34;;;;;;;;;;;;;;;0.17;59.18;100192.41;4441847;32;20288;-86
2022/01/21 05:59:00;;;;;;;;;;;;;;;0.27;59.19;100201.09;4428021;32;19989;-87
2022/01/21 06:01:25;;;;;;;;;;;;;;;0.16;59.18;100220.53;4428569;32;20019;-86
2022/01/21 06:03:50;;;;;;;;;;;;;;;-0.05;59.17;100216.75;4440841;32;20254;-86
2022/01/21 06:06:15;;;;;;;;;;;;;;;0.31;59.19;100220.81;4426881;32;20060;-86
2022/01/21 06:08:40;;;;;;;;;;;;;;;0.19;59.18;100226.56;4454248;32;19977;-87
2022/01/21 06:11:06;;;;;;;;;;;;;;;0.18;59.18;100236.78;4427704;32;22511;-86
2022/01/21 06:13:32;;;;;;;;;;;;;;;0.38;59.20;100239.69;4439644;32;22114;-86
2022/01/21 06:15:58;;;;;;;;;;;;;;;0.45;59.20;100244.06;4427156;32;19981;-87
2022/01/21 06:18:24;;;;;;;;;;;;;;;0.42;59.19;100255.13;4454098;32;20330;-86
2022/01/21 06:20:49;;;;;;;;;;;;;;;0.40;59.20;100261.91;4439784;32;20045;-86
2022/01/21 06:23:16;;;;;;;;;;;;;;;0.50;59.20;100268.94;4439776;32;19996;-87
2022/01/21 06:25:41;;;;;;;;;;;;;;;0.16;59.18;100285.38;4426792;32;20001;-87
2022/01/21 06:28:06;;;;;;;;;;;;;;;0.34;59.19;100291.69;4440819;32;19997;-86
2022/01/21 06:30:31;;;;;;;;;;;;;;;0.35;59.19;100294.25;4426477;32;20001;-86
2022/01/21 06:32:56;;;;;;;;;;;;;;;0.27;59.19;100296.69;4439818;32;19989;-86
2022/01/21 06:35:22;;;;;;;;;;;;;;;0.26;59.19;100299.22;4426400;32;21541;-86
2022/01/21 06:37:47;;;;;;;;;;;;;;;0.38;59.20;100301.13;4426346;32;21432;-87
2022/01/21 06:40:14;;;;;;;;;;;;;;;0.32;59.19;100293.34;4438780;32;23790;-86
2022/01/21 06:42:39;;;;;;;;;;;;;;;0.27;59.19;100314.63;4439651;32;19976;-86
2022/01/21 06:45:04;;;;;;;;;;;;;;;0.11;59.18;100317.72;4439329;32;20034;-86
2022/01/21 06:47:30;;;;;;;;;;;;;;;0.30;59.19;100324.91;4441672;32;19989;-87
2022/01/21 06:49:58;;;;;;;;;;;;;;;0.26;59.19;100325.69;4439229;32;20034;-86
2022/01/21 06:52:24;;;;;;;;;;;;;;;0.17;59.18;100330.62;4440008;32;20420;-87
2022/01/21 06:54:49;;;;;;;;;;;;;;;0.09;59.18;100327.06;4426402;32;19984;-86
2022/01/21 06:57:14;;;;;;;;;;;;;;;-0.11;59.17;100338.59;4439163;32;20024;-86
2022/01/21 06:59:40;;;;;;;;;;;;;;;-0.06;59.17;100342.09;4439411;32;20007;-86
2022/01/21 07:02:05;;;;;;;;;;;;;;;0.12;59.18;100339.06;4439073;32;20338;-87
2022/01/21 07:04:30;;;;;;;;;;;;;;;-0.09;59.16;100342.06;4439291;32;20285;-87
2022/01/21 07:06:58;;;;;;;;;;;;;;;0.01;59.16;100348.25;4439421;32;19981;-86
2022/01/21 07:09:24;;;;;;;;;;;;;;;-0.09;59.16;100345.47;4427442;32;20005;-86
2022/01/21 07:11:49;;;;;;;;;;;;;;;0.05;59.17;100360.25;4440475;32;20318;-86
2022/01/21 07:14:14;;;;;;;;;;;;;;;0.16;59.18;100366.44;4426113;32;23727;-87
2022/01/21 07:16:40;;;;;;;;;;;;;;;0.24;59.19;100380.28;4439267;32;19989;-88
2022/01/21 07:19:05;;;;;;;;;;;;;;;0.30;59.19;100371.00;4426454;32;20008;-87
2022/01/21 07:21:30;;;;;;;;;;;;;;;0.30;59.19;100368.44;4438942;32;24931;-87
2022/01/21 07:23:55;;;;;;;;;;;;;;;0.42;59.19;100384.84;4438702;32;20023;-87
2022/01/21 07:26:20;;;;;;;;;;;;;;;0.27;59.19;100381.19;4453434;32;20012;-87
2022/01/21 07:28:46;;;;;;;;;;;;;;;0.57;59.20;100378.34;4427619;32;20008;-87
2022/01/21 07:31:11;;;;;;;;;;;;;;;0.84;59.22;100380.50;4453471;32;19952;-88
2022/01/21 07:33:38;;;;;;;;;;;;;;;0.87;59.22;100380.56;4453248;32;19995;-87
2022/01/21 07:36:03;;;;;;;;;;;;;;;0.85;59.22;100378.81;4457184;32;20018;-88
2022/01/21 07:38:29;;;;;;;;;;;;;;;0.86;59.22;100372.84;4456168;32;19981;-89
2022/01/21 07:40:54;;;;;;;;;;;;;;;0.80;59.21;100367.62;4455931;32;19977;-89
2022/01/21 07:43:19;;;;;;;;;;;;;;;0.90;59.23;100360.09;4440693;32;20015;-88
2022/01/21 07:45:44;;;;;;;;;;;;;;;0.90;59.23;100354.97;4454425;32;21389;-88
2022/01/21 07:48:10;;;;;;;;;;;;;;;0.80;59.21;100349.69;4441274;32;20008;-89
2022/01/21 07:50:35;;;;;;;;;;;;;;;0.75;59.22;100349.63;4453346;32;20014;-87
2022/01/21 07:53:00;;;;;;;;;;;;;;;0.69;59.21;100352.06;4439450;32;19997;-88
2022/01/21 07:55:26;;;;;;;;;;;;;;;0.54;59.20;100336.44;4438248;32;19985;-86
2022/01/21 07:57:51;;;;;;;;;;;;;;;0.52;59.20;100348.34;4452464;32;20374;-86
2022/01/21 08:00:16;;;;;;;;;;;;;;;0.42;59.19;100346.44;4438153;32;20020;-85
2022/01/21 08:02:41;;;;;;;;;;;;;;;0.20;59.18;100352.84;4427076;32;19969;-88
2022/01/21 08:05:07;;;;;;;;;;;;;;;0.19;59.18;100369.06;4427281;32;20357;-88
2022/01/21 08:07:32;;;;;;;;;;;;;;;0.43;59.19;100366.09;4427073;32;19996;-89
2022/01/21 08:09:57;;;;;;;;;;;;;;;0.26;59.19;100381.16;4439528;32;20007;-88
2022/01/21 08:12:23;;;;;;;;;;;;;;;0.47;59.20;100361.06;4426606;32;19985;-88
2022/01/21 08:14:48;;;;;;;;;;;;;;;0.51;59.20;100367.13;4425833;32;20359;-88
2022/01/21 08:17:13;;;;;;;;;;;;;;;0.62;59.21;100374.16;4438728;32;20036;-88
2022/01/21 08:19:38;;;;;;;;;;;;;;;0.32;59.19;100382.97;4439020;32;19973;-88
2022/01/21 08:22:04;;;;;;;;;;;;;;;0.38;59.20;100357.47;4426193;32;20035;-88
2022/01/21 08:24:29;;;;;;;;;;;;;;;0.51;59.20;100347.50;4426815;32;20003;-87
2022/01/21 08:26:54;;;;;;;;;;;;;;;0.49;59.20;100345.75;4426198;32;20003;-87
2022/01/21 08:29:19;;;;;;;;;;;;;;;0.40;59.20;100340.44;4426144;32;20354;-86
2022/01/21 08:31:45;;;;;;;;;;;;;;;0.37;59.19;100338.69;4426398;32;19993;-88
2022/01/21 08:34:10;;;;;;;;;;;;;;;0.24;59.19;100332.50;4426037;32;20026;-90
2022/01/21 08:36:35;;;;;;;;;;;;;;;0.27;59.19;100347.91;4426570;32;20037;-89
2022/01/21 08:39:01;;;;;;;;;;;;;;;0.37;59.19;100340.38;4426216;32;19985;-87
2022/01/21 08:41:26;;;;;;;;;;;;;;;0.67;59.21;100338.34;4426349;32;20050;-90
2022/01/21 08:43:51;;;;;;;;;;;;;;;0.51;59.20;100342.37;4426795;32;20026;-88
2022/01/21 08:46:16;;;;;;;;;;;;;;;0.35;59.18;100362.53;4427113;32;20345;-89
2022/01/21 08:48:42;;;;;;;;;;;;;;;0.45;59.20;100355.03;4426233;32;20008;-90
2022/01/21 08:51:12;;;;;;;;;;;;;;;0.53;59.21;100370.56;4426414;32;19984;-89
2022/01/21 08:53:38;;;;;;;;;;;;;;;0.43;59.19;100381.47;4426996;32;19997;-89
2022/01/21 08:56:07;;;;;;;;;;;;;;;0.52;59.20;100391.91;4426306;32;19994;-88
2022/01/21 08:58:32;;;;;;;;;;;;;;;0.80;59.21;100391.56;4439417;32;20026;-88
2022/01/21 09:00:57;;;;;;;;;;;;;;;0.54;59.20;100398.78;4453150;32;19973;-89
2022/01/21 09:03:22;;;;;;;;;;;;;;;0.54;59.20;100392.78;4426496;32;20005;-86
2022/01/21 09:05:51;;;;;;;;;;;;;;;0.81;59.21;100407.78;4440246;32;20011;-90
2022/01/21 09:08:22;;;;;;;;;;;;;;;0.92;59.22;100413.97;4428765;32;19945;-92
2022/01/21 09:10:48;;;;;;;;;;;;;;;1.09;59.23;100404.00;4428665;32;19981;-90
2022/01/21 09:13:13;;;;;;;;;;;;;;;0.96;59.22;100407.22;4441318;32;21814;-90
2022/01/21 09:15:38;;;;;;;;;;;;;;;0.81;59.21;100408.66;4428975;32;20362;-89
2022/01/21 09:18:05;;;;;;;;;;;;;;;0.79;59.21;100410.34;4447728;32;19981;-91
2022/01/21 09:20:31;;;;;;;;;;;;;;;0.84;59.22;100411.28;4438941;32;19999;-87
2022/01/21 09:22:56;;;;;;;;;;;;;;;0.68;59.21;100411.81;4425602;32;20598;-89
2022/01/21 09:25:21;;;;;;;;;;;;;;;0.71;59.21;100416.13;4425567;32;19985;-89
2022/01/21 09:27:47;;;;;;;;;;;;;;;1.02;59.22;100415.88;4426120;32;20334;-89
2022/01/21 09:30:12;;;;;;;;;;;;;;;1.19;59.24;100422.16;4427876;32;20027;-88
2022/01/21 09:32:37;;;;;;;;;;;;;;;1.31;59.24;100436.84;4427630;32;20026;-90
2022/01/21 09:35:03;;;;;;;;;;;;;;;1.14;59.24;100433.13;4428102;32;19984;-90
2022/01/21 09:37:28;;;;;;;;;;;;;;;1.34;59.25;100441.16;4428418;32;20001;-89
2022/01/21 09:39:53;;;;;;;;;;;;;;;1.48;59.26;100438.00;4428274;32;20009;-90
2022/01/21 09:42:18;;;;;;;;;;;;;;;1.62;59.26;100425.34;4430599;32;20045;-90
2022/01/21 09:44:47;;;;;;;;;;;;;;;1.33;59.25;100442.88;4428130;32;20047;-89
2022/01/21 09:47:15;;;;;;;;;;;;;;;1.19;59.24;100437.53;4430141;32;20018;-89
2022/01/21 09:49:41;;;;;;;;;;;;;;;1.48;59.26;100422.59;4430505;32;20000;-91
2022/01/21 09:52:07;;;;;;;;;;;;;;;1.41;59.26;100432.72;4442075;32;20026;-90
2022/01/21 09:54:33;;;;;;;;;;;;;;;1.56;59.26;100425.28;4429183;32;20061;-90
2022/01/21 09:56:59;;;;;;;;;;;;;;;1.93;59.29;100439.50;4429066;32;20024;-89
2022/01/21 09:59:24;;;;;;;;;;;;;;;2.01;59.29;100437.91;4429031;32;20335;-90
2022/01/21 10:01:51;;;;;;;;;;;;;;;2.01;59.29;100427.63;4430862;32;19984;-91
2022/01/21 10:04:17;;;;;;;;;;;;;;;2.11;59.29;100428.59;4428539;32;20005;-89
2022/01/21 10:06:43;;;;;;;;;;;;;;;2.13;59.30;100427.81;4429247;32;19969;-88
2022/01/21 10:09:09;;;;;;;;;;;;;;;1.97;59.28;100419.87;4428689;32;19977;-91
2022/01/21 10:11:34;;;;;;;;;;;;;;;1.89;59.28;100424.88;4429716;32;20043;-93
2022/01/21 10:13:59;;;;;;;;;;;;;;;1.97;59.28;100423.31;4429225;32;20008;-90
2022/01/21 10:16:24;;;;;;;;;;;;;;;1.99;59.29;100413.06;4441996;32;20575;-90
2022/01/21 10:19:05;;;;;;;;;;;;;;;2.05;59.29;100413.13;4429096;32;20033;-92
2022/01/21 10:21:32;;;;;;;;;;;;;;;1.95;59.28;100416.44;4429405;32;20008;-91
2022/01/21 10:24:03;;;;;;;;;;;;;;;2.11;59.29;100421.75;4431374;32;20014;-90
2022/01/21 10:26:29;;;;;;;;;;;;;;;2.42;59.31;100422.16;4429562;32;20698;-91
2022/01/21 10:28:55;;;;;;;;;;;;;;;2.77;59.33;100412.25;4429613;32;20395;-93
2022/01/21 10:31:20;;;;;;;;;;;;;;;2.67;59.33;100407.88;4432317;32;19989;-92
2022/01/21 10:33:46;;;;;;;;;;;;;;;2.71;59.32;100399.34;4430194;32;20015;-93
2022/01/21 10:36:23;;;;;;;;;;;;;;;2.93;59.34;100401.28;4428505;32;20329;-88
2022/01/21 10:38:50;;;;;;;;;;;;;;;2.77;59.33;100409.69;4428651;32;19981;-89
2022/01/21 10:41:16;;;;;;;;;;;;;;;2.53;59.32;100410.28;4427553;32;19985;-90
2022/01/21 10:43:41;;;;;;;;;;;;;;;2.40;59.30;100409.28;4440557;32;19989;-90
2022/01/21 10:46:09;;;;;;;;;;;;;;;2.35;59.30;100420.34;4427912;32;19997;-89
2022/01/21 10:48:53;;;;;;;;;;;;;;;1.97;59.28;100413.03;4427572;32;20012;-89
2022/01/21 10:51:19;;;;;;;;;;;;;;;2.26;59.30;100417.66;4440305;32;20289;-89
2022/01/21 10:53:44;;;;;;;;;;;;;;;2.41;59.30;100430.72;4440786;32;20298;-89
2022/01/21 10:56:11;;;;;;;;;;;;;;;2.35;59.30;100422.91;4427925;32;19981;-90
2022/01/21 10:58:40;;;;;;;;;;;;;;;2.38;59.31;100418.69;4429723;32;19990;-89
2022/01/21 11:01:10;;;;;;;;;;;;;;;2.58;59.33;100423.19;4427129;32;20056;-89
2022/01/21 11:03:38;;;;;;;;;;;;;;;2.60;59.32;100421.47;4427772;32;19996;-89
2022/01/21 11:06:12;;;;;;;;;;;;;;;2.45;59.31;100424.75;4428277;32;19982;-91
2022/01/21 11:08:37;;;;;;;;;;;;;;;2.56;59.32;100417.16;4427937;32;19997;-90
2022/01/21 11:11:03;;;;;;;;;;;;;;;2.36;59.31;100416.94;4427318;32;23559;-90
2022/01/21 11:13:29;;;;;;;;;;;;;;;2.43;59.32;100417.03;4427651;32;19997;-90
2022/01/21 11:15:55;;;;;;;;;;;;;;;2.22;59.30;100406.50;4427427;32;19987;-89
2022/01/21 11:18:22;;;;;;;;;;;;;;;2.11;59.29;100406.34;4442529;32;20003;-90
2022/01/21 11:20:49;;;;;;;;;;;;;;;2.05;59.29;100401.16;4427570;32;19985;-89
2022/01/21 11:23:14;;;;;;;;;;;;;;;2.23;59.30;100394.53;4439907;32;20002;-90
2022/01/21 11:25:45;;;;;;;;;;;;;;;2.38;59.31;100405.00;4427412;32;19992;-90
2022/01/21 11:28:11;;;;;;;;;;;;;;;2.25;59.30;100395.41;4454514;32;19973;-89
2022/01/21 11:30:36;;;;;;;;;;;;;;;2.17;59.30;100394.47;4427670;32;20007;-90
2022/01/21 11:33:01;;;;;;;;;;;;;;;2.08;59.29;100390.91;4439538;32;20001;-91
2022/01/21 11:35:27;;;;;;;;;;;;;;;2.23;59.30;100367.13;4428612;32;19997;-91
2022/01/21 11:37:52;;;;;;;;;;;;;;;2.15;59.30;100361.06;4428244;32;20336;-89
2022/01/21 11:40:18;;;;;;;;;;;;;;;2.02;59.29;100361.75;4440587;32;20016;-89
2022/01/21 11:42:43;;;;;;;;;;;;;;;2.03;59.29;100359.19;4439698;32;20000;-89
2022/01/21 11:45:23;;;;;;;;;;;;;;;2.19;59.30;100338.84;4440151;32;20007;-91
2022/01/21 11:48:01;;;;;;;;;;;;;;;2.23;59.30;100371.41;4441876;32;19985;-91
2022/01/21 11:50:29;;;;;;;;;;;;;;;1.96;59.28;100324.03;4427258;32;19996;-90
2022/01/21 11:52:54;;;;;;;;;;;;;;;1.88;59.27;100305.06;4440142;32;20330;-90
2022/01/21 11:55:29;;;;;;;;;;;;;;;1.90;59.27;100311.13;4426665;32;20014;-90
2022/01/21 11:58:09;;;;;;;;;;;;;;;1.99;59.29;100297.53;4427463;32;20005;-91
2022/01/21 12:00:35;;;;;;;;;;;;;;;2.00;59.29;100294.97;4427755;32;20009;-91
2022/01/21 12:03:00;;;;;;;;;;;;;;;1.97;59.28;100297.50;4428520;32;19999;-91
2022/01/21 12:05:25;;;;;;;;;;;;;;;2.17;59.30;100286.59;4429069;32;19977;-90
2022/01/21 12:07:51;;;;;;;;;;;;;;;2.15;59.29;100284.00;4430004;32;20086;-92
2022/01/21 12:10:17;;;;;;;;;;;;;;;2.40;59.31;100285.13;4430284;32;20005;-92
2022/01/21 12:12:50;;;;;;;;;;;;;;;2.60;59.32;100275.00;4464172;32;19961;-91
2022/01/21 12:15:24;;;;;;;;;;;;;;;2.75;59.33;100267.41;4450636;32;19970;-91
2022/01/21 12:17:55;;;;;;;;;;;;;;;2.60;59.32;100275.88;4439709;32;20000;-91
2022/01/21 12:20:30;;;;;;;;;;;;;;;2.52;59.31;100274.94;4427781;32;20638;-89
2022/01/21 12:23:12;;;;;;;;;;;;;;;2.57;59.32;100282.69;4439968;32;19992;-89
2022/01/21 12:25:56;;;;;;;;;;;;;;;2.58;59.33;100274.97;4439422;32;19973;-90
2022/01/21 12:28:22;;;;;;;;;;;;;;;2.75;59.33;100259.72;4439847;32;19989;-90
2022/01/21 12:30:53;;;;;;;;;;;;;;;2.72;59.32;100267.41;4439772;32;19981;-90
2022/01/21 12:33:18;;;;;;;;;;;;;;;2.62;59.32;100278.47;4439872;32;19996;-91
2022/01/21 12:35:44;;;;;;;;;;;;;;;2.57;59.32;100259.56;4429453;32;19992;-91
2022/01/21 12:41:16;;;;;;;;;;;;;;;2.89;59.34;100265.81;4453581;32;20031;-91
2022/01/21 12:43:42;;;;;;;;;;;;;;;2.93;59.34;100267.56;4447759;32;19985;-92
2022/01/21 12:46:08;;;;;;;;;;;;;;;2.77;59.33;100276.84;4454963;32;20003;-91
2022/01/21 12:48:35;;;;;;;;;;;;;;;2.55;59.32;100271.53;4426901;32;20594;-89
2022/01/21 12:51:14;;;;;;;;;;;;;;;2.62;59.32;100278.47;4439431;32;19989;-92
2022/01/21 12:55:55;;;;;;;;;;;;;;;2.74;59.33;100268.25;4427047;32;20050;-91
2022/01/21 12:56:25;;;;;;;;;;;;;;;2.92;59.34;100288.97;4443982;32;19986;-90
2022/01/21 12:58:50;;;;;;;;;;;;;;;3.08;59.35;100282.25;4426914;32;20366;-90
2022/01/21 13:01:16;;;;;;;;;;;;;;;2.74;59.33;100289.69;4453377;32;20011;-91
2022/01/21 13:03:53;;;;;;;;;;;;;;;3.03;59.35;100297.63;4441452;32;20012;-91
2022/01/21 13:06:18;;;;;;;;;;;;;;;2.95;59.35;100301.00;4441661;32;20681;-93
2022/01/21 13:09:06;;;;;;;;;;;;;;;2.78;59.32;100306.84;4441067;32;20023;-90
2022/01/21 13:11:33;;;;;;;;;;;;;;;2.95;59.33;100289.00;4447625;32;19985;-91
2022/01/21 13:14:23;;;;;;;;;;;;;;;2.85;59.33;100307.78;4441997;32;20001;-93
2022/01/21 13:17:01;;;;;;;;;;;;;;;2.92;59.33;100316.41;4431121;32;20744;-92
2022/01/21 13:19:26;;;;;;;;;;;;;;;3.06;59.35;100307.06;4466581;32;19953;-92
2022/01/21 13:21:52;;;;;;;;;;;;;;;2.86;59.33;100296.66;4462371;32;20014;-90
2022/01/21 13:24:29;;;;;;;;;;;;;;;2.88;59.34;100306.94;4431120;32;19985;-91
2022/01/21 13:26:54;;;;;;;;;;;;;;;3.11;59.35;100309.69;4431694;32;19988;-90
2022/01/21 13:29:28;;;;;;;;;;;;;;;2.76;59.33;100323.12;4428469;32;19989;-91
2022/01/21 13:31:54;;;;;;;;;;;;;;;2.85;59.33;100312.06;4441938;32;20041;-90